sensor_id;sensor_type;location;lat;lon;timestamp;P1;durP1;ratioP1;P2;durP2;ratioP2
14100;SDS011;7127;49.372;8.166;2023-07-31T00:02:25;1.10;;;1.00;;
14100;SDS011;7127;49.372;8.166;2023-07-31T00:04:52;1.80;;;0.90;;
14100;SDS011;7127;49.372;8.166;2023-07-31T00:07:19;1.43;;;0.90;;
14100;SDS011;7127;49.372;8.166;2023-07-31T00:09:47;2.63;;;1.07;;
14100;SDS011;7127;49.372;8.166;2023-07-31T00:12:14;2.33;;;1.23;;
14100;SDS011;7127;49.372;8.166;2023-07-31T00:14:40;1.40;;;1.00;;
14100;SDS011;7127;49.372;8.166;2023-07-31T00:17:08;2.47;;;1.00;;
14100;SDS011;7127;49.372;8.166;2023-07-31T00:19:34;1.63;;;1.10;;
14100;SDS011;7127;49.372;8.166;2023-07-31T00:22:01;2.20;;;1.03;;
14100;SDS011;7127;49.372;8.166;2023-07-31T00:24:28;1.57;;;0.90;;
14100;SDS011;7127;49.372;8.166;2023-07-31T00:26:56;2.13;;;1.07;;
14100;SDS011;7127;49.372;8.166;2023-07-31T00:29:23;1.60;;;1.00;;
14100;SDS011;7127;49.372;8.166;2023-07-31T00:31:50;1.17;;;0.97;;
14100;SDS011;7127;49.372;8.166;2023-07-31T00:34:17;1.80;;;0.87;;
14100;SDS011;7127;49.372;8.166;2023-07-31T00:36:44;2.77;;;1.30;;
14100;SDS011;7127;49.372;8.166;2023-07-31T00:39:10;1.63;;;1.00;;
14100;SDS011;7127;49.372;8.166;2023-07-31T00:41:37;1.67;;;1.03;;
14100;SDS011;7127;49.372;8.166;2023-07-31T00:44:05;1.17;;;0.93;;
14100;SDS011;7127;49.372;8.166;2023-07-31T00:46:32;2.23;;;1.30;;
14100;SDS011;7127;49.372;8.166;2023-07-31T00:48:59;1.83;;;1.33;;
14100;SDS011;7127;49.372;8.166;2023-07-31T00:51:27;1.90;;;1.20;;
14100;SDS011;7127;49.372;8.166;2023-07-31T00:53:54;1.83;;;1.10;;
14100;SDS011;7127;49.372;8.166;2023-07-31T00:56:22;1.67;;;1.13;;
14100;SDS011;7127;49.372;8.166;2023-07-31T00:58:49;1.10;;;0.90;;
14100;SDS011;7127;49.372;8.166;2023-07-31T01:01:18;1.60;;;1.10;;
14100;SDS011;7127;49.372;8.166;2023-07-31T01:03:45;1.50;;;1.10;;
14100;SDS011;7127;49.372;8.166;2023-07-31T01:06:14;1.43;;;1.00;;
14100;SDS011;7127;49.372;8.166;2023-07-31T01:08:48;1.57;;;1.10;;
14100;SDS011;7127;49.372;8.166;2023-07-31T01:11:25;1.63;;;1.27;;
14100;SDS011;7127;49.372;8.166;2023-07-31T01:13:54;2.87;;;1.47;;
14100;SDS011;7127;49.372;8.166;2023-07-31T01:16:23;2.37;;;1.40;;
14100;SDS011;7127;49.372;8.166;2023-07-31T01:18:51;2.07;;;1.20;;
14100;SDS011;7127;49.372;8.166;2023-07-31T01:21:30;2.23;;;1.17;;
14100;SDS011;7127;49.372;8.166;2023-07-31T01:24:22;1.57;;;1.20;;
14100;SDS011;7127;49.372;8.166;2023-07-31T01:26:55;2.30;;;1.07;;
14100;SDS011;7127;49.372;8.166;2023-07-31T01:29:29;1.60;;;1.10;;
14100;SDS011;7127;49.372;8.166;2023-07-31T01:32:03;2.80;;;1.20;;
14100;SDS011;7127;49.372;8.166;2023-07-31T01:34:32;1.73;;;1.13;;
14100;SDS011;7127;49.372;8.166;2023-07-31T01:37:00;1.87;;;1.20;;
14100;SDS011;7127;49.372;8.166;2023-07-31T01:39:26;2.40;;;1.30;;
14100;SDS011;7127;49.372;8.166;2023-07-31T01:41:55;1.43;;;1.13;;
14100;SDS011;7127;49.372;8.166;2023-07-31T01:44:21;2.10;;;1.20;;
14100;SDS011;7127;49.372;8.166;2023-07-31T01:46:49;3.33;;;1.60;;
14100;SDS011;7127;49.372;8.166;2023-07-31T01:49:16;1.83;;;1.03;;
14100;SDS011;7127;49.372;8.166;2023-07-31T01:51:43;2.60;;;1.30;;
14100;SDS011;7127;49.372;8.166;2023-07-31T01:54:10;1.13;;;1.00;;
14100;SDS011;7127;49.372;8.166;2023-07-31T01:56:37;1.83;;;1.03;;
14100;SDS011;7127;49.372;8.166;2023-07-31T01:59:05;2.03;;;1.10;;
14100;SDS011;7127;49.372;8.166;2023-07-31T02:01:32;2.60;;;1.43;;
14100;SDS011;7127;49.372;8.166;2023-07-31T02:03:59;1.93;;;1.30;;
14100;SDS011;7127;49.372;8.166;2023-07-31T02:06:25;2.20;;;1.13;;
14100;SDS011;7127;49.372;8.166;2023-07-31T02:08:52;1.57;;;1.00;;
14100;SDS011;7127;49.372;8.166;2023-07-31T02:11:19;1.93;;;1.00;;
14100;SDS011;7127;49.372;8.166;2023-07-31T02:13:46;2.40;;;1.03;;
14100;SDS011;7127;49.372;8.166;2023-07-31T02:16:14;1.50;;;1.17;;
14100;SDS011;7127;49.372;8.166;2023-07-31T02:18:41;1.73;;;1.10;;
14100;SDS011;7127;49.372;8.166;2023-07-31T02:21:08;2.50;;;1.20;;
14100;SDS011;7127;49.372;8.166;2023-07-31T02:23:34;2.30;;;1.10;;
14100;SDS011;7127;49.372;8.166;2023-07-31T02:26:01;2.07;;;1.43;;
14100;SDS011;7127;49.372;8.166;2023-07-31T02:28:28;1.20;;;1.00;;
14100;SDS011;7127;49.372;8.166;2023-07-31T02:30:55;1.93;;;1.33;;
14100;SDS011;7127;49.372;8.166;2023-07-31T02:33:23;1.10;;;1.00;;
14100;SDS011;7127;49.372;8.166;2023-07-31T02:35:50;1.70;;;1.17;;
14100;SDS011;7127;49.372;8.166;2023-07-31T02:38:17;2.03;;;1.03;;
14100;SDS011;7127;49.372;8.166;2023-07-31T02:40:44;2.53;;;1.30;;
14100;SDS011;7127;49.372;8.166;2023-07-31T02:43:11;2.70;;;1.30;;
14100;SDS011;7127;49.372;8.166;2023-07-31T02:45:37;2.00;;;1.13;;
14100;SDS011;7127;49.372;8.166;2023-07-31T02:48:04;1.63;;;1.20;;
14100;SDS011;7127;49.372;8.166;2023-07-31T02:50:33;1.70;;;1.30;;
14100;SDS011;7127;49.372;8.166;2023-07-31T02:52:59;2.07;;;1.37;;
14100;SDS011;7127;49.372;8.166;2023-07-31T02:55:26;1.33;;;1.13;;
14100;SDS011;7127;49.372;8.166;2023-07-31T02:57:53;2.50;;;1.20;;
14100;SDS011;7127;49.372;8.166;2023-07-31T03:00:20;2.53;;;1.40;;
14100;SDS011;7127;49.372;8.166;2023-07-31T03:02:47;2.93;;;1.40;;
14100;SDS011;7127;49.372;8.166;2023-07-31T03:05:14;3.17;;;1.20;;
14100;SDS011;7127;49.372;8.166;2023-07-31T03:07:42;2.37;;;1.30;;
14100;SDS011;7127;49.372;8.166;2023-07-31T03:10:09;2.00;;;1.20;;
14100;SDS011;7127;49.372;8.166;2023-07-31T03:12:35;1.90;;;1.10;;
14100;SDS011;7127;49.372;8.166;2023-07-31T03:15:02;3.43;;;1.40;;
14100;SDS011;7127;49.372;8.166;2023-07-31T03:17:30;2.00;;;1.30;;
14100;SDS011;7127;49.372;8.166;2023-07-31T03:19:56;1.87;;;1.13;;
14100;SDS011;7127;49.372;8.166;2023-07-31T03:22:23;2.63;;;1.50;;
14100;SDS011;7127;49.372;8.166;2023-07-31T03:24:51;2.53;;;1.33;;
14100;SDS011;7127;49.372;8.166;2023-07-31T03:27:18;1.70;;;1.30;;
14100;SDS011;7127;49.372;8.166;2023-07-31T03:29:45;1.83;;;1.07;;
14100;SDS011;7127;49.372;8.166;2023-07-31T03:32:12;1.73;;;1.30;;
14100;SDS011;7127;49.372;8.166;2023-07-31T03:34:39;1.33;;;1.17;;
14100;SDS011;7127;49.372;8.166;2023-07-31T03:37:06;1.83;;;1.27;;
14100;SDS011;7127;49.372;8.166;2023-07-31T03:39:34;2.33;;;1.10;;
14100;SDS011;7127;49.372;8.166;2023-07-31T03:42:02;2.47;;;1.30;;
14100;SDS011;7127;49.372;8.166;2023-07-31T03:44:29;2.17;;;1.30;;
14100;SDS011;7127;49.372;8.166;2023-07-31T03:46:56;2.13;;;1.30;;
14100;SDS011;7127;49.372;8.166;2023-07-31T03:49:23;1.93;;;1.20;;
14100;SDS011;7127;49.372;8.166;2023-07-31T03:51:50;1.73;;;1.03;;
14100;SDS011;7127;49.372;8.166;2023-07-31T03:54:17;1.67;;;1.23;;
14100;SDS011;7127;49.372;8.166;2023-07-31T03:56:44;3.20;;;1.23;;
14100;SDS011;7127;49.372;8.166;2023-07-31T03:59:12;2.00;;;1.10;;
14100;SDS011;7127;49.372;8.166;2023-07-31T04:01:39;2.67;;;1.50;;
14100;SDS011;7127;49.372;8.166;2023-07-31T04:04:05;2.80;;;1.50;;
14100;SDS011;7127;49.372;8.166;2023-07-31T04:06:32;1.70;;;1.17;;
14100;SDS011;7127;49.372;8.166;2023-07-31T04:08:59;1.20;;;1.10;;
14100;SDS011;7127;49.372;8.166;2023-07-31T04:11:26;3.30;;;1.43;;
14100;SDS011;7127;49.372;8.166;2023-07-31T04:13:52;1.50;;;1.10;;
14100;SDS011;7127;49.372;8.166;2023-07-31T04:16:21;3.00;;;1.40;;
14100;SDS011;7127;49.372;8.166;2023-07-31T04:18:47;2.30;;;1.00;;
14100;SDS011;7127;49.372;8.166;2023-07-31T04:21:14;1.53;;;1.10;;
14100;SDS011;7127;49.372;8.166;2023-07-31T04:23:42;2.00;;;1.10;;
14100;SDS011;7127;49.372;8.166;2023-07-31T04:26:09;3.40;;;1.30;;
14100;SDS011;7127;49.372;8.166;2023-07-31T04:28:36;2.47;;;1.60;;
14100;SDS011;7127;49.372;8.166;2023-07-31T04:31:03;1.70;;;1.23;;
14100;SDS011;7127;49.372;8.166;2023-07-31T04:33:31;3.63;;;1.33;;
14100;SDS011;7127;49.372;8.166;2023-07-31T04:35:58;1.50;;;1.07;;
14100;SDS011;7127;49.372;8.166;2023-07-31T04:38:25;1.40;;;0.90;;
14100;SDS011;7127;49.372;8.166;2023-07-31T04:40:52;1.83;;;1.10;;
14100;SDS011;7127;49.372;8.166;2023-07-31T04:43:19;1.50;;;1.23;;
14100;SDS011;7127;49.372;8.166;2023-07-31T04:45:46;2.03;;;1.10;;
14100;SDS011;7127;49.372;8.166;2023-07-31T04:48:13;1.67;;;1.07;;
14100;SDS011;7127;49.372;8.166;2023-07-31T04:50:41;2.47;;;1.20;;
14100;SDS011;7127;49.372;8.166;2023-07-31T04:53:09;1.20;;;1.10;;
14100;SDS011;7127;49.372;8.166;2023-07-31T04:55:35;1.60;;;1.10;;
14100;SDS011;7127;49.372;8.166;2023-07-31T04:58:02;1.53;;;1.03;;
14100;SDS011;7127;49.372;8.166;2023-07-31T05:00:29;2.67;;;1.20;;
14100;SDS011;7127;49.372;8.166;2023-07-31T05:02:56;2.10;;;1.40;;
14100;SDS011;7127;49.372;8.166;2023-07-31T05:05:23;2.27;;;1.10;;
14100;SDS011;7127;49.372;8.166;2023-07-31T05:07:51;2.30;;;1.50;;
14100;SDS011;7127;49.372;8.166;2023-07-31T05:10:18;1.70;;;1.07;;
14100;SDS011;7127;49.372;8.166;2023-07-31T05:12:44;3.23;;;1.10;;
14100;SDS011;7127;49.372;8.166;2023-07-31T05:15:11;1.10;;;1.00;;
14100;SDS011;7127;49.372;8.166;2023-07-31T05:17:38;3.03;;;1.20;;
14100;SDS011;7127;49.372;8.166;2023-07-31T05:20:05;1.40;;;0.90;;
14100;SDS011;7127;49.372;8.166;2023-07-31T05:22:34;2.60;;;1.23;;
14100;SDS011;7127;49.372;8.166;2023-07-31T05:25:02;1.50;;;1.10;;
14100;SDS011;7127;49.372;8.166;2023-07-31T05:27:29;2.07;;;1.10;;
14100;SDS011;7127;49.372;8.166;2023-07-31T05:29:57;2.33;;;1.07;;
14100;SDS011;7127;49.372;8.166;2023-07-31T05:32:24;1.87;;;1.10;;
14100;SDS011;7127;49.372;8.166;2023-07-31T05:34:51;1.60;;;1.20;;
14100;SDS011;7127;49.372;8.166;2023-07-31T05:37:18;1.27;;;1.10;;
14100;SDS011;7127;49.372;8.166;2023-07-31T05:39:45;1.43;;;0.93;;
14100;SDS011;7127;49.372;8.166;2023-07-31T05:42:13;1.60;;;1.10;;
14100;SDS011;7127;49.372;8.166;2023-07-31T05:44:40;1.20;;;0.93;;
14100;SDS011;7127;49.372;8.166;2023-07-31T05:47:07;2.17;;;1.30;;
14100;SDS011;7127;49.372;8.166;2023-07-31T05:49:34;1.77;;;1.33;;
14100;SDS011;7127;49.372;8.166;2023-07-31T05:52:01;1.20;;;1.10;;
14100;SDS011;7127;49.372;8.166;2023-07-31T05:54:27;1.27;;;1.13;;
14100;SDS011;7127;49.372;8.166;2023-07-31T05:56:54;2.23;;;1.40;;
14100;SDS011;7127;49.372;8.166;2023-07-31T05:59:25;1.20;;;0.90;;
14100;SDS011;7127;49.372;8.166;2023-07-31T06:01:51;1.53;;;1.17;;
14100;SDS011;7127;49.372;8.166;2023-07-31T06:04:18;2.23;;;1.20;;
14100;SDS011;7127;49.372;8.166;2023-07-31T06:06:45;1.83;;;1.10;;
14100;SDS011;7127;49.372;8.166;2023-07-31T06:09:12;1.37;;;1.00;;
14100;SDS011;7127;49.372;8.166;2023-07-31T06:11:39;1.63;;;1.07;;
14100;SDS011;7127;49.372;8.166;2023-07-31T06:14:06;2.90;;;1.20;;
14100;SDS011;7127;49.372;8.166;2023-07-31T06:16:34;1.40;;;1.10;;
14100;SDS011;7127;49.372;8.166;2023-07-31T06:19:01;2.17;;;1.20;;
14100;SDS011;7127;49.372;8.166;2023-07-31T06:21:28;1.30;;;1.07;;
14100;SDS011;7127;49.372;8.166;2023-07-31T06:23:55;1.30;;;1.20;;
14100;SDS011;7127;49.372;8.166;2023-07-31T06:26:21;1.77;;;1.20;;
14100;SDS011;7127;49.372;8.166;2023-07-31T06:28:48;1.43;;;1.00;;
14100;SDS011;7127;49.372;8.166;2023-07-31T06:31:15;1.87;;;1.30;;
14100;SDS011;7127;49.372;8.166;2023-07-31T06:33:46;1.73;;;1.20;;
14100;SDS011;7127;49.372;8.166;2023-07-31T06:36:13;2.77;;;1.20;;
14100;SDS011;7127;49.372;8.166;2023-07-31T06:38:40;2.17;;;1.00;;
14100;SDS011;7127;49.372;8.166;2023-07-31T06:41:07;2.20;;;1.10;;
14100;SDS011;7127;49.372;8.166;2023-07-31T06:43:35;1.50;;;1.20;;
14100;SDS011;7127;49.372;8.166;2023-07-31T06:46:04;1.13;;;1.03;;
14100;SDS011;7127;49.372;8.166;2023-07-31T06:48:31;1.50;;;1.20;;
14100;SDS011;7127;49.372;8.166;2023-07-31T06:50:59;1.60;;;1.20;;
14100;SDS011;7127;49.372;8.166;2023-07-31T06:53:26;1.80;;;1.10;;
14100;SDS011;7127;49.372;8.166;2023-07-31T06:55:54;1.60;;;1.20;;
14100;SDS011;7127;49.372;8.166;2023-07-31T06:58:21;1.40;;;1.03;;
14100;SDS011;7127;49.372;8.166;2023-07-31T07:00:48;1.03;;;0.93;;
14100;SDS011;7127;49.372;8.166;2023-07-31T07:03:17;1.53;;;1.17;;
14100;SDS011;7127;49.372;8.166;2023-07-31T07:05:45;1.37;;;1.10;;
14100;SDS011;7127;49.372;8.166;2023-07-31T07:08:13;1.60;;;1.30;;
14100;SDS011;7127;49.372;8.166;2023-07-31T07:10:40;2.37;;;1.13;;
14100;SDS011;7127;49.372;8.166;2023-07-31T07:13:07;1.63;;;1.20;;
14100;SDS011;7127;49.372;8.166;2023-07-31T07:15:34;1.57;;;1.07;;
14100;SDS011;7127;49.372;8.166;2023-07-31T07:18:01;1.42;;;1.10;;
14100;SDS011;7127;49.372;8.166;2023-07-31T07:20:28;2.23;;;1.20;;
14100;SDS011;7127;49.372;8.166;2023-07-31T07:22:55;1.47;;;1.10;;
14100;SDS011;7127;49.372;8.166;2023-07-31T07:25:23;1.70;;;1.00;;
14100;SDS011;7127;49.372;8.166;2023-07-31T07:27:50;2.03;;;1.15;;
14100;SDS011;7127;49.372;8.166;2023-07-31T07:30:17;1.40;;;0.95;;
14100;SDS011;7127;49.372;8.166;2023-07-31T07:32:44;1.38;;;1.08;;
14100;SDS011;7127;49.372;8.166;2023-07-31T07:35:11;2.90;;;1.40;;
14100;SDS011;7127;49.372;8.166;2023-07-31T07:37:38;1.75;;;1.20;;
14100;SDS011;7127;49.372;8.166;2023-07-31T07:40:06;1.63;;;1.15;;
14100;SDS011;7127;49.372;8.166;2023-07-31T07:42:35;1.75;;;1.30;;
14100;SDS011;7127;49.372;8.166;2023-07-31T07:45:02;1.65;;;1.20;;
14100;SDS011;7127;49.372;8.166;2023-07-31T07:47:29;1.52;;;1.05;;
14100;SDS011;7127;49.372;8.166;2023-07-31T07:49:56;2.22;;;1.15;;
14100;SDS011;7127;49.372;8.166;2023-07-31T07:52:22;2.17;;;1.20;;
14100;SDS011;7127;49.372;8.166;2023-07-31T07:54:49;2.00;;;1.30;;
14100;SDS011;7127;49.372;8.166;2023-07-31T07:57:16;1.33;;;0.93;;
14100;SDS011;7127;49.372;8.166;2023-07-31T07:59:45;1.90;;;1.23;;
14100;SDS011;7127;49.372;8.166;2023-07-31T08:02:11;1.60;;;1.10;;
14100;SDS011;7127;49.372;8.166;2023-07-31T08:04:38;2.90;;;1.00;;
14100;SDS011;7127;49.372;8.166;2023-07-31T08:07:05;1.77;;;1.25;;
14100;SDS011;7127;49.372;8.166;2023-07-31T08:09:32;1.60;;;1.02;;
14100;SDS011;7127;49.372;8.166;2023-07-31T08:11:59;1.83;;;1.40;;
14100;SDS011;7127;49.372;8.166;2023-07-31T08:14:28;2.58;;;1.35;;
14100;SDS011;7127;49.372;8.166;2023-07-31T08:16:56;1.50;;;1.20;;
14100;SDS011;7127;49.372;8.166;2023-07-31T08:19:23;1.65;;;1.30;;
14100;SDS011;7127;49.372;8.166;2023-07-31T08:21:50;1.90;;;1.20;;
14100;SDS011;7127;49.372;8.166;2023-07-31T08:24:17;2.00;;;1.20;;
14100;SDS011;7127;49.372;8.166;2023-07-31T08:26:44;1.90;;;1.27;;
14100;SDS011;7127;49.372;8.166;2023-07-31T08:29:11;2.50;;;1.30;;
14100;SDS011;7127;49.372;8.166;2023-07-31T08:31:37;2.20;;;1.13;;
14100;SDS011;7127;49.372;8.166;2023-07-31T08:34:05;1.25;;;1.15;;
14100;SDS011;7127;49.372;8.166;2023-07-31T08:36:32;1.80;;;1.40;;
14100;SDS011;7127;49.372;8.166;2023-07-31T08:38:59;1.63;;;1.20;;
14100;SDS011;7127;49.372;8.166;2023-07-31T08:41:26;1.90;;;1.30;;
14100;SDS011;7127;49.372;8.166;2023-07-31T08:43:53;2.20;;;1.30;;
14100;SDS011;7127;49.372;8.166;2023-07-31T08:46:22;2.75;;;1.05;;
14100;SDS011;7127;49.372;8.166;2023-07-31T08:48:50;2.40;;;0.95;;
14100;SDS011;7127;49.372;8.166;2023-07-31T08:51:20;1.65;;;1.15;;
14100;SDS011;7127;49.372;8.166;2023-07-31T08:53:47;1.80;;;1.23;;
14100;SDS011;7127;49.372;8.166;2023-07-31T08:56:14;1.73;;;1.02;;
14100;SDS011;7127;49.372;8.166;2023-07-31T08:58:42;1.58;;;1.20;;
14100;SDS011;7127;49.372;8.166;2023-07-31T09:01:10;1.42;;;1.23;;
14100;SDS011;7127;49.372;8.166;2023-07-31T09:03:37;1.50;;;1.13;;
14100;SDS011;7127;49.372;8.166;2023-07-31T09:06:06;1.80;;;1.27;;
14100;SDS011;7127;49.372;8.166;2023-07-31T09:08:34;1.52;;;1.20;;
14100;SDS011;7127;49.372;8.166;2023-07-31T09:11:03;1.75;;;1.33;;
14100;SDS011;7127;49.372;8.166;2023-07-31T09:13:30;1.63;;;1.20;;
14100;SDS011;7127;49.372;8.166;2023-07-31T09:15:59;2.28;;;1.40;;
14100;SDS011;7127;49.372;8.166;2023-07-31T09:18:26;2.75;;;1.50;;
14100;SDS011;7127;49.372;8.166;2023-07-31T09:21:02;1.45;;;1.20;;
14100;SDS011;7127;49.372;8.166;2023-07-31T09:23:41;1.88;;;1.17;;
14100;SDS011;7127;49.372;8.166;2023-07-31T09:26:08;1.33;;;1.13;;
14100;SDS011;7127;49.372;8.166;2023-07-31T09:28:36;4.20;;;1.40;;
14100;SDS011;7127;49.372;8.166;2023-07-31T09:31:03;2.28;;;1.38;;
14100;SDS011;7127;49.372;8.166;2023-07-31T09:33:30;2.25;;;1.30;;
14100;SDS011;7127;49.372;8.166;2023-07-31T09:35:58;4.05;;;1.40;;
14100;SDS011;7127;49.372;8.166;2023-07-31T09:38:25;1.45;;;1.30;;
14100;SDS011;7127;49.372;8.166;2023-07-31T09:40:54;1.48;;;1.25;;
14100;SDS011;7127;49.372;8.166;2023-07-31T09:43:21;2.42;;;1.20;;
14100;SDS011;7127;49.372;8.166;2023-07-31T09:45:54;1.80;;;1.35;;
14100;SDS011;7127;49.372;8.166;2023-07-31T09:48:22;1.83;;;1.23;;
14100;SDS011;7127;49.372;8.166;2023-07-31T09:50:52;2.78;;;1.70;;
14100;SDS011;7127;49.372;8.166;2023-07-31T09:53:20;21.20;;;8.20;;
14100;SDS011;7127;49.372;8.166;2023-07-31T09:55:56;10.93;;;5.25;;
14100;SDS011;7127;49.372;8.166;2023-07-31T09:58:25;19.77;;;6.53;;
14100;SDS011;7127;49.372;8.166;2023-07-31T10:00:55;15.27;;;5.80;;
14100;SDS011;7127;49.372;8.166;2023-07-31T10:03:24;14.63;;;6.20;;
14100;SDS011;7127;49.372;8.166;2023-07-31T10:05:53;8.02;;;3.90;;
14100;SDS011;7127;49.372;8.166;2023-07-31T10:08:21;6.97;;;3.10;;
14100;SDS011;7127;49.372;8.166;2023-07-31T10:10:54;3.72;;;2.13;;
14100;SDS011;7127;49.372;8.166;2023-07-31T10:13:25;2.92;;;1.90;;
14100;SDS011;7127;49.372;8.166;2023-07-31T10:15:54;3.28;;;2.30;;
14100;SDS011;7127;49.372;8.166;2023-07-31T10:18:24;2.55;;;1.67;;
14100;SDS011;7127;49.372;8.166;2023-07-31T10:20:52;1.90;;;1.50;;
14100;SDS011;7127;49.372;8.166;2023-07-31T10:23:20;2.40;;;1.70;;
14100;SDS011;7127;49.372;8.166;2023-07-31T10:25:49;3.72;;;1.60;;
14100;SDS011;7127;49.372;8.166;2023-07-31T10:28:17;1.60;;;1.25;;
14100;SDS011;7127;49.372;8.166;2023-07-31T10:30:47;2.55;;;1.85;;
14100;SDS011;7127;49.372;8.166;2023-07-31T10:33:15;2.42;;;1.60;;
14100;SDS011;7127;49.372;8.166;2023-07-31T10:35:44;1.80;;;1.50;;
14100;SDS011;7127;49.372;8.166;2023-07-31T10:38:13;1.92;;;1.23;;
14100;SDS011;7127;49.372;8.166;2023-07-31T10:40:40;1.90;;;1.42;;
14100;SDS011;7127;49.372;8.166;2023-07-31T10:43:07;1.80;;;1.42;;
14100;SDS011;7127;49.372;8.166;2023-07-31T10:45:36;1.75;;;1.42;;
14100;SDS011;7127;49.372;8.166;2023-07-31T10:48:06;4.30;;;1.50;;
14100;SDS011;7127;49.372;8.166;2023-07-31T10:50:40;1.58;;;1.40;;
14100;SDS011;7127;49.372;8.166;2023-07-31T10:53:22;1.70;;;1.30;;
14100;SDS011;7127;49.372;8.166;2023-07-31T10:55:50;1.40;;;1.30;;
14100;SDS011;7127;49.372;8.166;2023-07-31T10:58:18;2.20;;;1.80;;
14100;SDS011;7127;49.372;8.166;2023-07-31T11:00:46;2.25;;;1.60;;
14100;SDS011;7127;49.372;8.166;2023-07-31T11:03:15;2.20;;;1.40;;
14100;SDS011;7127;49.372;8.166;2023-07-31T11:05:49;2.05;;;1.52;;
14100;SDS011;7127;49.372;8.166;2023-07-31T11:08:19;2.28;;;1.42;;
14100;SDS011;7127;49.372;8.166;2023-07-31T11:10:47;2.97;;;1.50;;
14100;SDS011;7127;49.372;8.166;2023-07-31T11:13:15;2.38;;;1.55;;
14100;SDS011;7127;49.372;8.166;2023-07-31T11:15:42;1.73;;;1.30;;
14100;SDS011;7127;49.372;8.166;2023-07-31T11:18:09;2.33;;;1.58;;
14100;SDS011;7127;49.372;8.166;2023-07-31T11:20:37;1.48;;;1.15;;
14100;SDS011;7127;49.372;8.166;2023-07-31T11:23:06;1.80;;;1.30;;
14100;SDS011;7127;49.372;8.166;2023-07-31T11:25:34;2.03;;;1.27;;
14100;SDS011;7127;49.372;8.166;2023-07-31T11:28:03;1.50;;;1.27;;
14100;SDS011;7127;49.372;8.166;2023-07-31T11:30:31;1.65;;;1.33;;
14100;SDS011;7127;49.372;8.166;2023-07-31T11:32:59;1.88;;;1.38;;
14100;SDS011;7127;49.372;8.166;2023-07-31T11:35:28;2.15;;;1.63;;
14100;SDS011;7127;49.372;8.166;2023-07-31T11:37:56;1.27;;;1.17;;
14100;SDS011;7127;49.372;8.166;2023-07-31T11:40:23;2.50;;;1.40;;
14100;SDS011;7127;49.372;8.166;2023-07-31T11:42:54;2.00;;;1.33;;
14100;SDS011;7127;49.372;8.166;2023-07-31T11:45:24;2.58;;;1.63;;
14100;SDS011;7127;49.372;8.166;2023-07-31T11:47:51;2.30;;;1.70;;
14100;SDS011;7127;49.372;8.166;2023-07-31T11:50:19;2.45;;;1.45;;
14100;SDS011;7127;49.372;8.166;2023-07-31T11:52:46;1.70;;;1.33;;
14100;SDS011;7127;49.372;8.166;2023-07-31T11:55:17;1.50;;;1.40;;
14100;SDS011;7127;49.372;8.166;2023-07-31T11:57:44;1.45;;;1.25;;
14100;SDS011;7127;49.372;8.166;2023-07-31T12:00:13;2.53;;;1.70;;
14100;SDS011;7127;49.372;8.166;2023-07-31T12:02:41;2.00;;;1.48;;
14100;SDS011;7127;49.372;8.166;2023-07-31T12:05:10;3.00;;;1.65;;
14100;SDS011;7127;49.372;8.166;2023-07-31T12:07:44;1.40;;;1.27;;
14100;SDS011;7127;49.372;8.166;2023-07-31T12:10:23;2.08;;;1.45;;
14100;SDS011;7127;49.372;8.166;2023-07-31T12:13:01;1.55;;;1.40;;
14100;SDS011;7127;49.372;8.166;2023-07-31T12:15:29;1.90;;;1.42;;
14100;SDS011;7127;49.372;8.166;2023-07-31T12:18:09;3.13;;;1.33;;
14100;SDS011;7127;49.372;8.166;2023-07-31T12:20:47;2.53;;;1.52;;
14100;SDS011;7127;49.372;8.166;2023-07-31T12:23:15;2.38;;;1.42;;
14100;SDS011;7127;49.372;8.166;2023-07-31T12:25:45;2.17;;;1.42;;
14100;SDS011;7127;49.372;8.166;2023-07-31T12:28:11;3.63;;;1.52;;
14100;SDS011;7127;49.372;8.166;2023-07-31T12:30:39;1.10;;;1.00;;
14100;SDS011;7127;49.372;8.166;2023-07-31T12:33:11;1.45;;;1.20;;
14100;SDS011;7127;49.372;8.166;2023-07-31T12:35:40;1.63;;;1.30;;
14100;SDS011;7127;49.372;8.166;2023-07-31T12:38:09;1.30;;;1.13;;
14100;SDS011;7127;49.372;8.166;2023-07-31T12:40:37;2.08;;;1.40;;
14100;SDS011;7127;49.372;8.166;2023-07-31T12:43:06;1.88;;;1.33;;
14100;SDS011;7127;49.372;8.166;2023-07-31T12:45:33;1.92;;;1.45;;
14100;SDS011;7127;49.372;8.166;2023-07-31T12:48:01;1.92;;;1.30;;
14100;SDS011;7127;49.372;8.166;2023-07-31T12:50:28;2.15;;;1.40;;
14100;SDS011;7127;49.372;8.166;2023-07-31T12:52:54;2.58;;;1.40;;
14100;SDS011;7127;49.372;8.166;2023-07-31T12:55:22;2.17;;;1.50;;
14100;SDS011;7127;49.372;8.166;2023-07-31T12:57:49;1.40;;;1.20;;
14100;SDS011;7127;49.372;8.166;2023-07-31T13:00:18;1.77;;;1.38;;
14100;SDS011;7127;49.372;8.166;2023-07-31T13:02:45;2.03;;;1.45;;
14100;SDS011;7127;49.372;8.166;2023-07-31T13:05:12;1.70;;;1.25;;
14100;SDS011;7127;49.372;8.166;2023-07-31T13:07:39;1.77;;;1.40;;
14100;SDS011;7127;49.372;8.166;2023-07-31T13:10:07;1.13;;;1.02;;
14100;SDS011;7127;49.372;8.166;2023-07-31T13:12:34;1.83;;;1.50;;
14100;SDS011;7127;49.372;8.166;2023-07-31T13:15:01;2.42;;;1.65;;
14100;SDS011;7127;49.372;8.166;2023-07-31T13:17:29;2.03;;;1.42;;
14100;SDS011;7127;49.372;8.166;2023-07-31T13:19:56;1.90;;;1.25;;
14100;SDS011;7127;49.372;8.166;2023-07-31T13:22:23;1.60;;;1.40;;
14100;SDS011;7127;49.372;8.166;2023-07-31T13:24:50;1.65;;;1.27;;
14100;SDS011;7127;49.372;8.166;2023-07-31T13:27:17;1.65;;;1.30;;
14100;SDS011;7127;49.372;8.166;2023-07-31T13:29:46;1.80;;;1.20;;
14100;SDS011;7127;49.372;8.166;2023-07-31T13:32:13;1.65;;;1.40;;
14100;SDS011;7127;49.372;8.166;2023-07-31T13:34:41;2.17;;;1.38;;
14100;SDS011;7127;49.372;8.166;2023-07-31T13:37:08;1.85;;;1.40;;
14100;SDS011;7127;49.372;8.166;2023-07-31T13:39:35;2.28;;;1.42;;
14100;SDS011;7127;49.372;8.166;2023-07-31T13:42:02;1.65;;;1.40;;
14100;SDS011;7127;49.372;8.166;2023-07-31T13:44:31;1.60;;;1.10;;
14100;SDS011;7127;49.372;8.166;2023-07-31T13:46:58;2.55;;;1.50;;
14100;SDS011;7127;49.372;8.166;2023-07-31T13:49:25;1.52;;;1.33;;
14100;SDS011;7127;49.372;8.166;2023-07-31T13:51:53;1.70;;;1.17;;
14100;SDS011;7127;49.372;8.166;2023-07-31T13:54:21;1.23;;;1.13;;
14100;SDS011;7127;49.372;8.166;2023-07-31T13:56:48;1.63;;;1.15;;
14100;SDS011;7127;49.372;8.166;2023-07-31T13:59:15;1.50;;;1.30;;
14100;SDS011;7127;49.372;8.166;2023-07-31T14:01:43;1.40;;;1.30;;
14100;SDS011;7127;49.372;8.166;2023-07-31T14:04:10;1.50;;;1.23;;
14100;SDS011;7127;49.372;8.166;2023-07-31T14:06:37;2.15;;;1.35;;
14100;SDS011;7127;49.372;8.166;2023-07-31T14:09:05;1.98;;;1.50;;
14100;SDS011;7127;49.372;8.166;2023-07-31T14:11:32;1.55;;;1.38;;
14100;SDS011;7127;49.372;8.166;2023-07-31T14:13:59;1.92;;;1.30;;
14100;SDS011;7127;49.372;8.166;2023-07-31T14:16:27;2.20;;;1.23;;
14100;SDS011;7127;49.372;8.166;2023-07-31T14:18:54;1.65;;;1.20;;
14100;SDS011;7127;49.372;8.166;2023-07-31T14:21:24;1.83;;;1.27;;
14100;SDS011;7127;49.372;8.166;2023-07-31T14:23:51;1.90;;;1.30;;
14100;SDS011;7127;49.372;8.166;2023-07-31T14:26:20;1.88;;;1.50;;
14100;SDS011;7127;49.372;8.166;2023-07-31T14:28:47;2.25;;;1.30;;
14100;SDS011;7127;49.372;8.166;2023-07-31T14:31:13;1.98;;;1.55;;
14100;SDS011;7127;49.372;8.166;2023-07-31T14:33:40;1.70;;;1.13;;
14100;SDS011;7127;49.372;8.166;2023-07-31T14:36:07;2.10;;;1.30;;
14100;SDS011;7127;49.372;8.166;2023-07-31T14:38:34;1.27;;;1.17;;
14100;SDS011;7127;49.372;8.166;2023-07-31T14:41:01;1.65;;;1.10;;
14100;SDS011;7127;49.372;8.166;2023-07-31T14:43:29;1.75;;;1.25;;
14100;SDS011;7127;49.372;8.166;2023-07-31T14:45:57;1.35;;;1.10;;
14100;SDS011;7127;49.372;8.166;2023-07-31T14:48:25;1.95;;;1.38;;
14100;SDS011;7127;49.372;8.166;2023-07-31T14:50:51;2.15;;;1.38;;
14100;SDS011;7127;49.372;8.166;2023-07-31T14:53:18;1.42;;;1.25;;
14100;SDS011;7127;49.372;8.166;2023-07-31T14:55:45;1.65;;;1.05;;
14100;SDS011;7127;49.372;8.166;2023-07-31T14:58:12;1.38;;;1.13;;
14100;SDS011;7127;49.372;8.166;2023-07-31T15:00:41;1.33;;;1.13;;
14100;SDS011;7127;49.372;8.166;2023-07-31T15:03:08;1.98;;;1.58;;
14100;SDS011;7127;49.372;8.166;2023-07-31T15:05:35;2.53;;;1.30;;